Logo AVAMET
Benvolgut visitant, si us plau, ingressa Recuperar contrasenya
AVAMET paisatges

Inforatge Sueca el Perelló

Dades diàries. Acumulats / Últims 30 dies disponibles

Data Temperatura (°C) Humitat rel. (%) Pressió rel. (hPa) Vent (km/h) Precipitació
Mínima Mitjana Màxima Amplitud
tèrmica
Mínima Mitjana Màxima Mínima Mitjana Màxima Predom. Mitjana Ràfega
màxima
Total
(mm)
Índex-n
Mínima Mitjana Màxima Mínima Mitjana Màxima n
0 a 1
P0 max
mm 5'
Dades mensuals acumulades fins l'últim dia disponible
10/2020 7,8 12,7 18,7 18,3 19,5 23,7 31,2 23,4 23 65 95 991 1.016 1.025   12,3 83,7 1,0
Dades anuals acumulades fins l'últim dia disponible
2020 4,5 15,2 26,2 19,0 11,0 22,7 32,9 28,4 1 78 96 991 1.018 1.035   11,1 111,0 367,8
Últims 30 dies disponibles
19-10-2020 12,4     17,1     21,2 8,8 70 82 94 1.019 1.020 1.022 W 9,8 35,4 0,0
18-10-2020 10,3     16,1     20,8 10,5 62 76 90 1.019 1.020 1.022 WNW 9,0 25,7 0,0
17-10-2020 8,3     15,1     20,9 12,6 37 65 85 1.015 1.017 1.019 W 11,6 35,4 0,0
16-10-2020 7,8     14,6     19,5 11,7 33 57 83 1.016 1.017 1.019 WNW 10,5 38,6 0,0
15-10-2020 10,3     16,1     22,3 12,0 27 51 83 1.013 1.015 1.017 W 8,7 33,8 0,0
14-10-2020 13,6     17,2     20,9 7,3 56 74 90 1.008 1.010 1.013 ENE 8,2 41,8 0,0
13-10-2020 11,4     18,7     28,0 16,6 33 57 80 1.009 1.014 1.019 W 11,6 38,6 0,0
12-10-2020 9,7     16,2     21,9 12,2 32 54 78 1.018 1.020 1.023 W 11,7 33,8 0,0
11-10-2020 16,5     19,5     21,6 5,1 35 51 88 1.019 1.021 1.022 E 12,1 33,8 0,0
10-10-2020 18,7     21,1     23,2 4,5 78 86 92 1.019 1.021 1.023 NE 7,4 25,7 0,0
09-10-2020 16,1     20,5     23,4 7,3 75 86 95 1.020 1.021 1.023 ESE 9,2 30,6 0,0
08-10-2020 15,4     20,8     23,4 8,0 68 81 89 1.021 1.023 1.025 ESE 10,0 38,6 0,0
07-10-2020 15,7     21,8     28,6 12,9 38 64 82 1.019 1.020 1.023 W 10,6 32,2 0,0
06-10-2020 11,3     18,7     27,3 16,0 34 64 86 1.018 1.020 1.021 W 11,6 35,4 0,0
05-10-2020 13,6     18,5     23,2 9,6 32 58 76 1.012 1.015 1.020 WSW 11,9 29,0 0,0
04-10-2020 10,9     16,8     23,7 12,8 37 58 75 1.007 1.009 1.012 W 19,2 51,5 0,0
03-10-2020 10,4     15,9     22,3 11,9 36 56 73 1.001 1.005 1.010 W 22,4 49,9 0,0
02-10-2020 12,5     19,6     26,9 14,4 42 60 87 991 998 1.005 WSW 23,3 83,7 1,0
01-10-2020 15,7     22,7     31,2 15,5 23 58 94 1.005 1.008 1.013 W 14,0 48,3 0,0
30-09-2020 14,2     19,0     23,9 9,7 69 83 92 1.012 1.015 1.018 SO 7,3 30,6 0,0
29-09-2020 12,8     18,7     23,7 10,9 56 74 90 1.016 1.018 1.020 W 7,4 27,4 0,0
28-09-2020 10,9     17,8     22,7 11,8 33 64 84 1.014 1.016 1.018 ESE 10,6 40,2 0,0
27-09-2020 13,4     19,8     22,9 9,5 28 54 82 1.008 1.011 1.014 W 12,2 40,2 0,0
26-09-2020 11,7     19,3     24,8 13,1 30 48 72 1.011 1.016 1.020 W 11,7 37,0 0,0
25-09-2020 17,2     22,2     26,3 9,1 25 48 69 1.012 1.015 1.020 W 18,0 53,1 0,0
24-09-2020 19,4     23,9     30,1 10,7 46 63 78 1.010 1.012 1.014 W 14,0 38,6 0,0
23-09-2020 18,9     23,3     30,3 11,4 43 75 92 1.010 1.012 1.013 W 7,2 35,4 0,0
22-09-2020 17,9     23,0     27,6 9,7 43 76 92 1.011 1.014 1.015 SE 9,2 38,6 0,0
21-09-2020 17,4     22,8     27,4 10,0 49 70 82 1.014 1.015 1.016 W 11,4 37,0 0,0
20-09-2020 17,6     23,4     30,4 12,8 38 64 84 1.013 1.015 1.017 WSW 13,7 35,4 0,0
Últims 13 mesos disponibles
09/2020 10,9 17,7 21,9 22,5 22,7 26,7 30,4 19,5 32 70 85 1.011 1.017 1.023 W 9,6 61,2 51,2
08/2020 15,2 22,3 25,7 26,1 24,4 29,0 32,9 17,7 1 54 88 1.004 1.014 1.019 ENE 9,7 53,1 0,4
07/2020 18,6 22,3 26,2 25,5 26,4 28,0 30,5 11,9 71 82 86 1.011 1.016 1.020 NE 9,4 45,1 15,8
06/2020 15,8 19,2 23,3 22,6 20,3 25,9 30,3 14,5 51 79 87 1.005 1.014 1.021 NE 11,7 62,8 10,4
05/2020 11,8 16,1 20,8 20,1 19,8 23,7 32,3 20,5 54 77 88 1.005 1.017 1.027 NE 11,4 67,6 12,4
04/2020 8,3 12,3 16,5 15,5 15,2 18,7 25,9 17,6 56 83 93 1.006 1.016 1.026 NE 9,6 59,5 63,6
03/2020 5,2 10,3 16,5 13,7 11,6 17,2 22,6 17,4 52 77 93 1.007 1.018 1.027 NNE 14,8 104,6 78,2
02/2020 6,2 10,0 14,7 14,0 14,4 18,9 26,2 20,0 60 80 91 1.014 1.026 1.033 NNW 9,9 53,1 2,4
01/2020 4,5 8,1 13,9 11,1 11,0 15,1 19,6 15,1 68 82 93 1.016 1.026 1.033 WSW 12,9 111,0 132,4
12/2019 6,4 11,1 16,3 13,8 13,1 16,9 23,8 17,4 59 77 91 1.002 1.019 1.033 W 16,7 107,8 103,2
11/2019 6,8 12,0 20,8 15,1 14,8 18,9 27,2 20,4 55 66 84 999 1.011 1.019 W 18,5 78,9 6,6
10/2019 11,2 15,3 20,7 19,5 18,4 24,2 33,8 22,6 54 77 89 1.008 1.017 1.022 W 9,3 54,7 38,4
09/2019 14,6 19,4 24,8 23,2 23,1 26,6 32,7 18,1 57 80 89 1.010 1.017 1.024 SSE 11,5 90,7 55,4
Tots els anys disponibles
2019 2,4 13,9 26,4 17,8 11,8 21,6 36,8 34,4 45 75 94 995 1.017 1.034 SSE 12,2 107,8 274,6
2018 1,2 14,1 26,1 17,8 8,3 21,5 35,2 34,0 46 76 94 993 1.016 1.035 S 12,0 98,2 769,4
2017 2,2 14,8 25,8 18,7 11,1 22,3 35,3 33,1 48 77 93 998 1.019 1.036 S 6,5 88,9 175,2
Temperatura (°C)
Humitat relativa (%)
Velocitat del vent i ràfega màxima (km/h)
Direcció del vent (°)
Pressió (hPa)
Precipitació (mm)
Nota sobre les dades: s'avisa a l'usuari de la provisionalitat i no oficialitat d'aquestes dades
Logo AVAMET blanc
Web allotjada a Sollutia
Llicència de Creative CommonsLa web d'AVAMET i els seus continguts estan subjectes a una llicència de
Reconeixement - No Comercial - Compartir igual
Últimes estacions: La Vilavella - Centre (Ajuntament Soci), Alfondeguilla (Soci), Santa Magdalena de Polpís (Soci),  Benafigos (Aj. Soci), Carlet - Ajuntament (Inforatge), Montroi (Inforatge), Bronchales (Limítrofe-Terol/Aj. Soci), Sueca - Muntanyeta dels Sants (Inforatge), Vilamarxant - Ajuntament (Aj. Soci/Inforatge) - - -